Time;durP1;ratioP1;P1;durP2;ratioP2;P2;SDS_P1;SDS_P2;PMS_P1;PMS_P2;Temp;Humidity;BMP_temperature;BMP_pressure;BME280_temperature;BME280_humidity;BME280_pressure;Samples;Min_cycle;Max_cycle;Signal;HPM_P1;HPM_P2
2022/10/10 00:00:38;;;;;;;11.23;5.83;;;;;;;11.38;nan;-24134.81;5091106;28;20572;-72
2022/10/10 00:03:04;;;;;;;9.63;6.05;;;;;;;11.47;nan;-24137.50;5090944;28;20629;-70
2022/10/10 00:05:30;;;;;;;11.23;5.30;;;;;;;10.99;nan;-24123.97;5091325;28;20209;-74
2022/10/10 00:07:55;;;;;;;9.65;5.55;;;;;;;11.00;nan;-24124.41;5091094;28;20541;-74
2022/10/10 00:10:21;;;;;;;10.73;6.30;;;;;;;11.13;nan;-24127.91;5091213;28;20185;-73
2022/10/10 00:12:47;;;;;;;12.68;7.15;;;;;;;10.89;nan;-24121.16;5072548;28;20184;-74
2022/10/10 00:15:13;;;;;;;14.18;7.68;;;;;;;11.20;nan;-24129.88;5072803;28;20214;-72
2022/10/10 00:17:42;;;;;;;13.43;6.40;;;;;;;11.08;nan;-24126.50;5090999;28;20180;-74
2022/10/10 00:20:11;;;;;;;13.63;7.23;;;;;;;11.17;nan;-24128.91;5091123;28;20169;-72
2022/10/10 00:22:36;;;;;;;10.47;6.03;;;;;;;10.78;nan;-24118.19;5090490;28;20331;-74
2022/10/10 00:25:03;;;;;;;11.63;6.57;;;;;;;10.97;nan;-24123.53;5072657;28;20213;-73
2022/10/10 00:27:28;;;;;;;13.37;6.47;;;;;;;10.79;nan;-24118.47;5091311;28;20761;-74
2022/10/10 00:29:53;;;;;;;14.77;6.60;;;;;;;10.94;nan;-24122.56;5091112;28;20165;-72
2022/10/10 00:32:19;;;;;;;11.53;6.67;;;;;;;10.76;nan;-24117.63;5094801;28;20208;-73
2022/10/10 00:34:44;;;;;;;9.83;5.53;;;;;;;11.06;nan;-24126.09;5094933;28;20181;-74
2022/10/10 00:37:10;;;;;;;9.07;5.27;;;;;;;11.18;nan;-24129.19;5093737;28;20703;-72
2022/10/10 00:39:35;;;;;;;12.87;6.10;;;;;;;10.70;nan;-24115.78;5094921;28;20169;-72
2022/10/10 00:42:00;;;;;;;12.00;6.23;;;;;;;10.68;nan;-24115.38;5093086;28;20620;-71
2022/10/10 00:44:27;;;;;;;8.07;5.40;;;;;;;10.67;nan;-24114.94;5093571;28;20200;-73
2022/10/10 00:46:52;;;;;;;10.63;5.80;;;;;;;10.94;nan;-24122.69;5094344;28;20173;-73
2022/10/10 00:49:21;;;;;;;13.27;6.32;;;;;;;10.95;nan;-24122.84;5094109;28;20621;-73
2022/10/10 00:51:48;;;;;;;11.20;5.97;;;;;;;10.54;nan;-24111.56;5094205;28;20173;-71
2022/10/10 00:54:16;;;;;;;11.57;5.67;;;;;;;10.54;nan;-24111.56;5075607;28;20684;-71
2022/10/10 00:57:12;;;;;;;11.90;6.07;;;;;;;10.86;nan;-24120.31;5093197;28;20184;-74
2022/10/10 00:59:41;;;;;;;12.47;5.07;;;;;;;10.75;nan;-24117.19;5072632;28;20272;-72
2022/10/10 01:02:07;;;;;;;11.77;5.30;;;;;;;10.40;nan;-24107.63;5093320;28;20170;-71
2022/10/10 01:04:41;;;;;;;9.03;5.30;;;;;;;10.51;nan;-24110.56;5093397;28;20197;-72
2022/10/10 01:07:11;;;;;;;14.67;5.67;;;;;;;10.36;nan;-24106.47;5093807;28;20172;-70
2022/10/10 01:09:38;;;;;;;9.40;5.43;;;;;;;10.24;nan;-24103.09;5093782;28;20510;-73
2022/10/10 01:12:13;;;;;;;8.67;5.83;;;;;;;10.51;nan;-24110.56;5093547;28;20355;-73
2022/10/10 01:15:20;;;;;;;9.57;5.67;;;;;;;10.43;nan;-24108.31;5093726;28;20211;-72
2022/10/10 01:18:04;;;;;;;8.77;5.53;;;;;;;10.37;nan;-24106.75;5093057;28;20222;-73
2022/10/10 01:20:47;;;;;;;15.67;6.33;;;;;;;9.98;nan;-24095.75;5093910;28;20180;-73
2022/10/10 01:23:43;;;;;;;14.40;6.20;;;;;;;10.48;nan;-24109.88;5092972;28;20252;-71
2022/10/10 01:26:26;;;;;;;13.47;7.37;;;;;;;10.58;nan;-24112.56;5093863;28;20288;-71
2022/10/10 01:28:59;;;;;;;13.50;7.10;;;;;;;10.22;nan;-24102.38;5093819;28;20663;-73
2022/10/10 01:31:25;;;;;;;14.87;6.90;;;;;;;10.41;nan;-24107.75;5093226;28;20173;-73
2022/10/10 01:34:16;;;;;;;13.90;7.17;;;;;;;10.45;nan;-24109.03;5093337;28;20166;-73
2022/10/10 01:36:52;;;;;;;12.20;7.07;;;;;;;10.32;nan;-24105.34;5093701;28;20599;-71
2022/10/10 01:39:20;;;;;;;12.70;7.17;;;;;;;10.51;nan;-24110.56;5093559;28;20226;-73
2022/10/10 01:41:55;;;;;;;12.50;7.63;;;;;;;10.17;nan;-24101.25;5074498;28;20173;-75
2022/10/10 01:44:21;;;;;;;14.40;7.67;;;;;;;10.12;nan;-24099.84;5093099;28;20209;-73
2022/10/10 01:46:46;;;;;;;9.83;6.50;;;;;;;10.55;nan;-24111.69;5092926;28;20224;-71
2022/10/10 01:49:12;;;;;;;18.40;7.80;;;;;;;10.22;nan;-24102.38;5093232;28;20177;-74
2022/10/10 01:52:07;;;;;;;18.87;6.87;;;;;;;10.56;nan;-24111.97;5093072;28;20189;-73
2022/10/10 01:54:46;;;;;;;11.90;6.73;;;;;;;10.20;nan;-24101.97;5045551;28;20201;-72
2022/10/10 01:57:18;;;;;;;11.83;5.70;;;;;;;10.56;nan;-24111.97;5093090;28;20184;-71
2022/10/10 02:00:14;;;;;;;10.60;6.57;;;;;;;10.50;nan;-24110.44;5092900;28;20176;-73
2022/10/10 02:03:04;;;;;;;10.03;6.43;;;;;;;10.48;nan;-24109.72;5070930;28;20664;-73
2022/10/10 02:05:40;;;;;;;13.47;6.60;;;;;;;10.47;nan;-24109.44;5093524;28;20216;-74
2022/10/10 02:08:10;;;;;;;11.77;6.30;;;;;;;10.48;nan;-24109.72;5074734;28;20536;-71
2022/10/10 02:10:45;;;;;;;12.67;6.67;;;;;;;10.19;nan;-24101.69;5092852;28;20178;-72
2022/10/10 02:13:12;;;;;;;11.63;6.03;;;;;;;10.46;nan;-24109.31;5092924;28;20176;-72
2022/10/10 02:15:43;;;;;;;17.67;7.03;;;;;;;10.53;nan;-24111.28;5093002;28;20201;-73
2022/10/10 02:18:12;;;;;;;13.80;6.83;;;;;;;10.26;nan;-24103.66;5074340;28;20177;-72
2022/10/10 02:20:40;;;;;;;13.27;6.87;;;;;;;10.34;nan;-24105.91;5092843;28;20188;-72
2022/10/10 02:23:08;;;;;;;12.17;7.10;;;;;;;10.18;nan;-24101.53;5092553;28;20567;-72
2022/10/10 02:25:38;;;;;;;11.20;6.77;;;;;;;10.29;nan;-24104.50;5092653;28;20254;-71
2022/10/10 02:28:09;;;;;;;13.10;5.97;;;;;;;10.36;nan;-24106.47;5092186;28;20201;-72
2022/10/10 02:30:39;;;;;;;12.60;6.27;;;;;;;10.31;nan;-24105.06;5092356;28;20534;-74
2022/10/10 02:33:06;;;;;;;10.97;6.70;;;;;;;10.30;nan;-24104.66;5073902;28;20619;-73
2022/10/10 02:35:40;;;;;;;15.07;6.17;;;;;;;10.25;nan;-24103.22;5091803;28;20344;-73
2022/10/10 02:38:10;;;;;;;12.43;6.93;;;;;;;10.07;nan;-24098.28;5092140;28;20650;-72
2022/10/10 02:40:36;;;;;;;11.73;6.40;;;;;;;9.75;nan;-24089.53;5091654;28;20588;-74
2022/10/10 02:43:05;;;;;;;11.00;6.10;;;;;;;10.30;nan;-24104.66;5092115;28;20177;-72
2022/10/10 02:45:32;;;;;;;11.47;6.23;;;;;;;10.37;nan;-24106.63;5073754;28;20717;-74
2022/10/10 02:47:59;;;;;;;13.23;6.53;;;;;;;10.04;nan;-24097.59;5091802;28;20226;-74
2022/10/10 02:50:25;;;;;;;11.30;6.60;;;;;;;10.04;nan;-24097.59;5092056;28;20174;-73
2022/10/10 02:52:50;;;;;;;11.50;5.83;;;;;;;10.24;nan;-24103.09;5091952;28;20234;-73
2022/10/10 02:55:16;;;;;;;12.20;6.90;;;;;;;10.24;nan;-24103.09;5072663;28;20185;-73
2022/10/10 02:57:41;;;;;;;11.40;6.90;;;;;;;9.98;nan;-24095.75;5091433;28;20169;-73
2022/10/10 03:00:08;;;;;;;12.53;6.60;;;;;;;9.94;nan;-24094.63;5092012;28;20577;-74
2022/10/10 03:02:33;;;;;;;12.90;6.93;;;;;;;9.88;nan;-24093.06;5091949;28;20176;-72
2022/10/10 03:04:59;;;;;;;8.80;6.27;;;;;;;10.17;nan;-24101.13;5091822;28;20202;-72
2022/10/10 03:07:25;;;;;;;6.83;5.53;;;;;;;10.18;nan;-24101.41;5092044;28;20260;-74
2022/10/10 03:09:50;;;;;;;8.37;5.80;;;;;;;10.11;nan;-24099.41;5091118;28;20178;-72
2022/10/10 03:12:16;;;;;;;10.53;6.27;;;;;;;10.20;nan;-24101.97;5091800;28;20184;-74
2022/10/10 03:14:42;;;;;;;12.20;7.23;;;;;;;10.08;nan;-24098.56;5091511;28;20552;-72
2022/10/10 03:17:08;;;;;;;13.23;6.40;;;;;;;9.87;nan;-24092.63;5091742;28;20184;-74
2022/10/10 03:19:33;;;;;;;13.20;6.57;;;;;;;8.50;nan;-24054.47;5092071;28;20173;-72
2022/10/10 03:21:58;;;;;;;15.80;5.93;;;;;;;10.19;nan;-24101.81;5081764;28;20269;-72
2022/10/10 03:24:25;;;;;;;8.43;5.53;;;;;;;10.17;nan;-24101.25;5076266;28;20567;-71
2022/10/10 03:26:50;;;;;;;9.40;5.77;;;;;;;10.12;nan;-24099.69;5077946;28;20189;-72
2022/10/10 03:29:16;;;;;;;13.30;6.73;;;;;;;9.76;nan;-24089.66;5076309;28;20575;-74
2022/10/10 03:31:42;;;;;;;10.43;6.23;;;;;;;10.06;nan;-24098.00;5077051;28;20161;-74
2022/10/10 03:34:07;;;;;;;12.27;6.70;;;;;;;9.47;nan;-24081.47;5077130;28;20311;-72
2022/10/10 03:36:32;;;;;;;10.20;5.93;;;;;;;10.11;nan;-24099.41;5076557;28;20687;-74
2022/10/10 03:38:58;;;;;;;11.33;6.77;;;;;;;9.86;nan;-24092.34;5077305;28;20190;-73
2022/10/10 03:41:23;;;;;;;13.23;6.27;;;;;;;10.07;nan;-24098.28;5076358;28;20254;-74
2022/10/10 03:43:49;;;;;;;11.63;7.53;;;;;;;10.24;nan;-24102.94;5064081;28;20626;-72
2022/10/10 03:46:14;;;;;;;9.23;5.87;;;;;;;10.10;nan;-24099.13;5063972;28;20300;-73
2022/10/10 03:48:40;;;;;;;11.33;6.67;;;;;;;9.53;nan;-24083.31;5076645;28;20209;-72
2022/10/10 03:51:05;;;;;;;11.30;5.97;;;;;;;9.72;nan;-24088.53;5081899;28;20246;-72
2022/10/10 03:53:31;;;;;;;11.37;6.67;;;;;;;9.90;nan;-24093.47;5076395;28;20177;-74
2022/10/10 03:55:56;;;;;;;12.67;5.97;;;;;;;9.61;nan;-24085.56;5076304;28;20207;-72
2022/10/10 03:58:22;;;;;;;16.17;6.33;;;;;;;9.74;nan;-24089.09;5076403;28;20181;-72
2022/10/10 04:00:55;;;;;;;11.37;6.43;;;;;;;9.86;nan;-24092.50;5064914;28;20720;-73
2022/10/10 04:03:21;;;;;;;9.87;5.83;;;;;;;9.82;nan;-24091.38;5076477;28;20181;-73
2022/10/10 04:05:47;;;;;;;11.03;6.33;;;;;;;9.62;nan;-24085.72;5078199;28;20212;-74
2022/10/10 04:08:12;;;;;;;10.27;6.07;;;;;;;9.72;nan;-24088.69;5079571;28;20255;-74
2022/10/10 04:10:38;;;;;;;9.13;6.00;;;;;;;9.03;nan;-24069.31;5079467;28;20199;-73
2022/10/10 04:13:03;;;;;;;11.83;6.43;;;;;;;9.49;nan;-24082.19;5078605;28;20217;-74
2022/10/10 04:15:29;;;;;;;11.83;6.50;;;;;;;9.35;nan;-24078.22;5079600;28;20204;-74
2022/10/10 04:17:55;;;;;;;12.90;6.33;;;;;;;9.31;nan;-24077.09;5080721;28;20182;-74
2022/10/10 04:20:20;;;;;;;10.83;6.07;;;;;;;9.21;nan;-24074.41;5099709;28;20242;-73
2022/10/10 04:22:46;;;;;;;12.37;6.17;;;;;;;9.59;nan;-24085.00;5093784;28;20216;-74
2022/10/10 04:25:11;;;;;;;10.23;5.70;;;;;;;9.42;nan;-24080.06;5094143;28;20254;-72
2022/10/10 04:27:37;;;;;;;9.50;5.40;;;;;;;9.73;nan;-24088.81;5075504;28;20212;-73
2022/10/10 04:30:04;;;;;;;9.47;5.83;;;;;;;9.19;nan;-24073.72;5094156;28;20246;-73
2022/10/10 04:32:29;;;;;;;10.47;5.77;;;;;;;9.34;nan;-24077.81;5089526;28;20177;-73
2022/10/10 04:34:55;;;;;;;11.33;6.07;;;;;;;9.21;nan;-24074.41;5100540;28;20224;-74
2022/10/10 04:37:20;;;;;;;11.10;5.37;;;;;;;9.40;nan;-24079.63;5094076;28;20576;-70
2022/10/10 04:39:46;;;;;;;10.40;5.70;;;;;;;9.55;nan;-24083.75;5075633;28;20545;-75
2022/10/10 04:42:11;;;;;;;10.13;5.60;;;;;;;9.57;nan;-24084.31;5075451;28;20203;-72
2022/10/10 04:44:37;;;;;;;12.80;4.87;;;;;;;9.57;nan;-24084.31;5092993;28;20257;-72
2022/10/10 04:47:03;;;;;;;10.53;6.23;;;;;;;9.42;nan;-24080.22;5093762;28;20173;-74
2022/10/10 04:49:28;;;;;;;10.00;5.97;;;;;;;9.47;nan;-24081.47;5094153;28;20180;-73
2022/10/10 04:51:53;;;;;;;8.20;5.77;;;;;;;9.48;nan;-24081.75;5093939;28;20165;-72
2022/10/10 04:54:19;;;;;;;11.37;6.07;;;;;;;9.46;nan;-24081.19;5093961;28;20688;-72
2022/10/10 04:56:44;;;;;;;9.03;6.00;;;;;;;9.89;nan;-24093.34;5075880;28;20207;-73
2022/10/10 04:59:10;;;;;;;14.80;6.20;;;;;;;9.79;nan;-24090.53;5094323;28;20165;-75
2022/10/10 05:01:36;;;;;;;9.33;6.10;;;;;;;9.90;nan;-24093.63;5075897;28;20625;-75
2022/10/10 05:04:01;;;;;;;11.47;5.63;;;;;;;10.08;nan;-24098.56;5094198;28;20173;-76
2022/10/10 05:06:26;;;;;;;9.37;6.13;;;;;;;10.03;nan;-24097.16;5075226;28;20204;-75
2022/10/10 05:08:52;;;;;;;9.80;6.33;;;;;;;10.07;nan;-24098.28;5094088;28;20252;-77
2022/10/10 05:11:17;;;;;;;10.93;5.57;;;;;;;9.93;nan;-24094.47;5094040;28;20245;-72
2022/10/10 05:13:43;;;;;;;11.10;6.23;;;;;;;10.02;nan;-24097.03;5093283;28;20169;-74
2022/10/10 05:16:08;;;;;;;10.63;6.37;;;;;;;10.58;nan;-24112.56;5093772;28;20604;-75
2022/10/10 05:18:36;;;;;;;9.50;5.57;;;;;;;10.12;nan;-24099.84;5092569;28;20597;-76
2022/10/10 05:21:02;;;;;;;11.53;7.30;;;;;;;10.56;nan;-24111.97;5091791;28;20416;-73
2022/10/10 05:23:27;;;;;;;10.83;5.30;;;;;;;11.01;nan;-24124.53;5074843;28;20667;-76
2022/10/10 05:25:53;;;;;;;11.93;6.00;;;;;;;11.02;nan;-24124.81;5092982;28;20212;-74
2022/10/10 05:28:18;;;;;;;11.03;5.63;;;;;;;11.05;nan;-24125.66;5093540;28;20244;-74
2022/10/10 05:30:43;;;;;;;9.40;5.57;;;;;;;11.25;nan;-24131.31;5092206;28;20173;-73
2022/10/10 05:33:09;;;;;;;8.25;5.38;;;;;;;11.13;nan;-24127.78;5093570;28;20596;-72
2022/10/10 05:35:34;;;;;;;9.90;5.97;;;;;;;11.50;nan;-24138.22;5075134;28;20177;-74
2022/10/10 05:38:00;;;;;;;9.53;5.70;;;;;;;11.73;nan;-24144.69;5093045;28;20672;-72
2022/10/10 05:40:25;;;;;;;7.75;4.97;;;;;;;11.63;nan;-24141.72;5093063;28;20249;-73
2022/10/10 05:42:51;;;;;;;6.03;4.25;;;;;;;11.84;nan;-24147.78;5092929;28;20173;-75
2022/10/10 05:45:16;;;;;;;9.88;5.47;;;;;;;11.80;nan;-24146.66;5092738;28;20193;-74
2022/10/10 05:47:42;;;;;;;9.95;5.25;;;;;;;11.76;nan;-24145.41;5093297;28;20181;-73
2022/10/10 05:50:24;;;;;;;10.57;4.80;;;;;;;11.99;nan;-24151.88;5092614;28;20177;-75
2022/10/10 05:52:50;;;;;;;17.20;5.30;;;;;;;12.54;nan;-24167.22;5092774;28;20206;-74
2022/10/10 05:55:15;;;;;;;8.75;5.32;;;;;;;12.66;nan;-24170.44;5092812;28;20170;-74
2022/10/10 05:57:41;;;;;;;10.57;6.13;;;;;;;12.21;nan;-24158.06;5093258;28;20201;-72
2022/10/10 06:00:06;;;;;;;16.45;6.00;;;;;;;12.93;nan;-24177.91;5092874;28;20174;-74
2022/10/10 06:02:32;;;;;;;10.80;5.35;;;;;;;12.80;nan;-24174.38;5093075;28;20166;-74
2022/10/10 06:04:57;;;;;;;12.55;5.55;;;;;;;13.30;nan;-24188.16;5092441;28;20246;-77
2022/10/10 06:07:23;;;;;;;12.63;5.45;;;;;;;13.26;nan;-24187.19;5092027;28;20623;-72
2022/10/10 06:09:48;;;;;;;12.80;6.05;;;;;;;13.66;nan;-24198.28;5092566;28;20184;-73
2022/10/10 06:12:13;;;;;;;9.00;5.43;;;;;;;13.59;nan;-24196.44;5092619;28;20204;-76
2022/10/10 06:14:39;;;;;;;8.88;5.70;;;;;;;13.91;nan;-24205.16;5092213;28;20184;-74
2022/10/10 06:17:04;;;;;;;9.90;5.22;;;;;;;13.91;nan;-24205.28;5092676;28;20185;-72
2022/10/10 06:19:30;;;;;;;10.55;5.72;;;;;;;13.58;nan;-24196.03;5092843;28;20302;-74
2022/10/10 06:21:55;;;;;;;7.35;3.97;;;;;;;13.58;nan;-24196.16;5091886;28;20162;-73
2022/10/10 06:24:20;;;;;;;9.30;5.25;;;;;;;13.99;nan;-24207.53;5092034;28;20213;-74
2022/10/10 06:26:46;;;;;;;11.60;5.30;;;;;;;14.23;nan;-24214.00;5090745;28;20235;-73
2022/10/10 06:29:11;;;;;;;9.10;5.57;;;;;;;14.40;nan;-24218.75;5096408;28;20177;-72
2022/10/10 06:31:39;;;;;;;15.40;5.60;;;;;;;14.78;nan;-24229.28;5092814;28;20684;-72
2022/10/10 06:34:05;;;;;;;7.93;4.55;;;;;;;14.40;nan;-24218.91;5073246;28;20181;-74
2022/10/10 06:36:31;;;;;;;9.52;5.32;;;;;;;14.57;nan;-24223.66;5091763;28;20297;-75
2022/10/10 06:38:57;;;;;;;8.38;5.28;;;;;;;14.69;nan;-24226.75;5092613;28;20235;-73
2022/10/10 06:41:22;;;;;;;7.38;4.72;;;;;;;14.99;nan;-24235.31;5090852;28;20188;-73
2022/10/10 06:43:50;;;;;;;11.77;5.25;;;;;;;15.19;nan;-24240.78;5091949;28;20173;-75
2022/10/10 06:46:16;;;;;;;10.38;5.43;;;;;;;14.91;nan;-24233.06;5092075;28;20216;-77
2022/10/10 06:48:42;;;;;;;7.95;4.18;;;;;;;15.33;nan;-24244.56;5090837;28;20180;-74
2022/10/10 06:51:12;;;;;;;6.63;4.45;;;;;;;15.66;nan;-24253.78;5073515;28;20314;-77
2022/10/10 06:53:37;;;;;;;6.20;3.88;;;;;;;15.55;nan;-24250.72;5091651;28;20225;-73
2022/10/10 06:56:03;;;;;;;7.38;4.40;;;;;;;16.07;nan;-24265.00;5091964;28;20659;-74
2022/10/10 06:58:29;;;;;;;5.57;3.42;;;;;;;16.21;nan;-24268.91;5091407;28;20260;-79
2022/10/10 07:00:58;;;;;;;6.15;3.85;;;;;;;16.04;nan;-24264.28;5091258;28;20511;-75
2022/10/10 07:03:24;;;;;;;6.82;4.20;;;;;;;16.29;nan;-24271.13;5091735;28;20230;-77
2022/10/10 07:05:51;;;;;;;6.43;4.18;;;;;;;16.41;nan;-24274.34;5090887;28;20668;-74
2022/10/10 07:08:17;;;;;;;6.90;4.35;;;;;;;16.68;nan;-24282.03;5091371;28;20664;-73
2022/10/10 07:10:42;;;;;;;9.13;5.00;;;;;;;16.41;nan;-24274.50;5091705;28;20222;-74
2022/10/10 07:13:08;;;;;;;12.88;4.78;;;;;;;17.10;nan;-24293.50;5091843;28;20670;-76
2022/10/10 07:15:33;;;;;;;7.60;4.80;;;;;;;16.93;nan;-24288.75;5091292;28;20163;-61
2022/10/10 07:17:59;;;;;;;7.18;4.35;;;;;;;17.21;nan;-24296.56;5091563;28;20169;-60
2022/10/10 07:20:25;;;;;;;6.85;4.35;;;;;;;;;;5091522;28;20193;-61
2022/10/10 07:22:51;;;;;;;9.80;5.20;;;;;;;17.46;nan;-24303.41;5091097;28;20255;-60
2022/10/10 07:25:16;;;;;;;8.52;4.78;;;;;;;17.20;nan;-24296.28;5090750;28;20228;-60
2022/10/10 07:27:42;;;;;;;7.80;5.10;;;;;;;17.33;nan;-24299.78;5091586;28;20209;-61
2022/10/10 07:30:08;;;;;;;10.25;5.78;;;;;;;17.39;nan;-24301.59;5091231;28;20314;-61
2022/10/10 07:32:33;;;;;;;10.80;5.15;;;;;;;17.86;nan;-24314.56;5091339;28;20181;-61
2022/10/10 07:34:59;;;;;;;7.95;5.25;;;;;;;18.17;nan;-24322.94;5091536;28;20173;-61
2022/10/10 07:37:25;;;;;;;10.30;6.00;;;;;;;17.80;nan;-24312.75;5090988;28;20180;-60
2022/10/10 07:39:54;;;;;;;10.68;5.78;;;;;;;17.82;nan;-24313.31;5090774;28;20162;-60
2022/10/10 07:42:20;;;;;;;9.75;5.97;;;;;;;17.45;nan;-24303.28;5091089;28;20268;-60
2022/10/10 07:44:45;;;;;;;8.88;5.00;;;;;;;17.73;nan;-24310.81;5090407;28;20304;-60
2022/10/10 07:47:11;;;;;;;10.60;5.93;;;;;;;18.03;nan;-24319.19;5090626;28;20535;-60
2022/10/10 07:49:36;;;;;;;12.65;5.88;;;;;;;17.87;nan;-24314.72;5090977;28;20214;-60
2022/10/10 07:52:02;;;;;;;10.98;5.00;;;;;;;17.97;nan;-24317.50;5090836;28;20189;-60
2022/10/10 07:54:29;;;;;;;8.95;4.88;;;;;;;18.01;nan;-24318.63;5090570;28;20260;-61
2022/10/10 07:56:54;;;;;;;10.38;5.38;;;;;;;17.91;nan;-24315.81;5091116;28;20637;-60
2022/10/10 07:59:20;;;;;;;8.43;5.45;;;;;;;18.00;nan;-24318.34;5089910;28;20172;-60
2022/10/10 08:01:46;;;;;;;7.72;4.93;;;;;;;16.82;nan;-24285.69;5089081;28;20184;-60
2022/10/10 08:04:11;;;;;;;8.27;4.82;;;;;;;17.68;nan;-24309.56;5089551;28;20236;-60
2022/10/10 08:06:37;;;;;;;10.85;5.65;;;;;;;18.38;nan;-24328.78;5089342;28;20192;-60
2022/10/10 08:09:02;;;;;;;9.65;5.15;;;;;;;18.60;nan;-24334.78;5089463;28;20644;-59
2022/10/10 08:11:28;;;;;;;8.07;4.78;;;;;;;18.43;nan;-24330.31;5089434;28;20170;-60
2022/10/10 08:13:53;;;;;;;7.03;5.03;;;;;;;18.34;nan;-24327.81;5090276;28;20271;-60
2022/10/10 08:16:19;;;;;;;10.50;5.43;;;;;;;18.08;nan;-24320.72;5090859;28;20174;-60
2022/10/10 08:18:44;;;;;;;10.15;4.93;;;;;;;18.87;nan;-24342.44;5091100;28;20252;-60
2022/10/10 08:21:11;;;;;;;10.05;5.20;;;;;;;18.91;nan;-24343.41;5073377;28;20184;-60
2022/10/10 08:23:37;;;;;;;10.32;5.70;;;;;;;18.70;nan;-24337.72;5091007;28;20250;-60
2022/10/10 08:26:06;;;;;;;9.32;5.25;;;;;;;18.52;nan;-24332.81;5091233;28;20291;-60
2022/10/10 08:28:32;;;;;;;10.93;5.47;;;;;;;18.82;nan;-24341.03;5090836;28;20185;-60
2022/10/10 08:30:57;;;;;;;12.05;5.47;;;;;;;19.09;nan;-24348.28;5091072;28;20184;-60
2022/10/10 08:33:27;;;;;;;7.82;4.88;;;;;;;18.82;nan;-24340.91;5091284;28;20605;-60
2022/10/10 08:35:52;;;;;;;10.88;5.95;;;;;;;18.75;nan;-24338.97;5091396;28;20181;-60
2022/10/10 08:38:17;;;;;;;10.27;5.50;;;;;;;19.16;nan;-24350.38;5091384;28;20222;-59
2022/10/10 08:40:48;;;;;;;9.35;5.70;;;;;;;18.87;nan;-24342.31;5090880;28;20169;-60
2022/10/10 08:43:29;;;;;;;10.27;5.75;;;;;;;19.48;nan;-24359.13;5073014;28;20177;-59
2022/10/10 08:45:57;;;;;;;9.27;5.28;;;;;;;19.41;nan;-24357.19;5091232;28;20196;-60
2022/10/10 08:48:28;;;;;;;10.70;5.22;;;;;;;19.41;nan;-24357.19;5090890;28;20258;-60
2022/10/10 08:51:05;;;;;;;7.75;4.68;;;;;;;19.36;nan;-24355.94;5091012;28;20158;-60
2022/10/10 08:53:37;;;;;;;10.50;4.65;;;;;;;19.31;nan;-24354.53;5093419;28;20200;-61
2022/10/10 08:56:12;;;;;;;7.18;4.53;;;;;;;19.40;nan;-24357.06;5093305;28;20180;-60
2022/10/10 08:58:45;;;;;;;8.80;4.68;;;;;;;19.83;nan;-24368.88;5094550;28;20188;-61
2022/10/10 09:01:23;;;;;;;9.82;5.25;;;;;;;19.61;nan;-24362.63;5094809;28;20226;-60
2022/10/10 09:03:58;;;;;;;10.43;5.50;;;;;;;19.28;nan;-24353.56;5094200;28;20169;-61
2022/10/10 09:06:42;;;;;;;8.57;4.57;;;;;;;19.51;nan;-24359.97;5094663;28;20207;-61
2022/10/10 09:09:16;;;;;;;9.20;5.15;;;;;;;19.61;nan;-24362.75;5094493;28;20225;-61
2022/10/10 09:11:55;;;;;;;8.77;5.03;;;;;;;19.99;nan;-24373.19;5094540;28;20513;-60
2022/10/10 09:15:17;;;;;;;10.50;3.95;;;;;;;20.25;nan;-24380.25;5093652;28;20531;-61
2022/10/10 09:18:07;;;;;;;8.43;4.45;;;;;;;20.27;nan;-24380.81;5011718;28;20774;-59
2022/10/10 09:20:49;;;;;;;10.57;5.07;;;;;;;20.55;nan;-24388.47;5011592;28;20189;-61
2022/10/10 09:23:27;;;;;;;7.53;4.40;;;;;;;20.87;nan;-24397.19;5072937;28;20270;-60
2022/10/10 09:26:10;;;;;;;5.07;3.33;;;;;;;21.10;nan;-24403.72;5094144;28;20193;-59
2022/10/10 09:28:42;;;;;;;6.90;4.03;;;;;;;21.00;nan;-24400.81;5094235;28;20177;-60
2022/10/10 09:31:23;;;;;;;5.22;3.40;;;;;;;20.87;nan;-24397.19;5094088;28;20249;-60
2022/10/10 09:33:55;;;;;;;5.28;3.28;;;;;;;20.55;nan;-24388.47;5094137;28;20189;-60
2022/10/10 09:36:24;;;;;;;8.15;3.55;;;;;;;20.70;nan;-24392.75;5093477;28;20534;-60
2022/10/10 09:38:54;;;;;;;7.05;3.92;;;;;;;20.95;nan;-24399.41;5093340;28;20176;-60
2022/10/10 09:41:23;;;;;;;7.07;3.90;;;;;;;21.27;nan;-24408.16;5093319;28;20172;-61
2022/10/10 09:43:54;;;;;;;5.72;3.75;;;;;;;21.39;nan;-24411.63;5092241;28;20169;-60
2022/10/10 09:46:20;;;;;;;5.75;3.42;;;;;;;21.27;nan;-24408.28;5093641;28;20716;-60
2022/10/10 09:48:45;;;;;;;5.68;3.63;;;;;;;21.65;nan;-24418.69;5093724;28;20205;-60
2022/10/10 09:51:16;;;;;;;6.28;3.30;;;;;;;21.77;nan;-24422.00;5093664;28;20180;-59
2022/10/10 09:53:43;;;;;;;5.93;3.60;;;;;;;21.45;nan;-24413.28;5093647;28;20632;-60
2022/10/10 09:56:18;;;;;;;9.65;3.75;;;;;;;21.48;nan;-24414.13;5093453;28;20177;-60
2022/10/10 09:58:48;;;;;;;5.90;3.55;;;;;;;21.40;nan;-24411.75;5093787;28;20179;-60
2022/10/10 10:01:18;;;;;;;6.45;3.55;;;;;;;21.26;nan;-24407.88;5093186;28;20260;-60
2022/10/10 10:04:15;;;;;;;5.38;3.15;;;;;;;21.30;nan;-24409.00;5092796;28;20201;-60
2022/10/10 10:06:49;;;;;;;4.80;3.42;;;;;;;21.07;nan;-24402.88;5086778;28;20193;-60
2022/10/10 10:09:17;;;;;;;8.40;3.72;;;;;;;20.90;nan;-24398.03;5084804;28;20283;-60
2022/10/10 10:11:45;;;;;;;9.57;3.80;;;;;;;21.13;nan;-24404.41;5093468;28;20208;-61
2022/10/10 10:14:25;;;;;;;6.68;4.13;;;;;;;21.58;nan;-24416.75;5093021;28;20227;-61
2022/10/10 10:16:54;;;;;;;6.07;3.88;;;;;;;21.29;nan;-24408.84;5072706;28;20185;-61
2022/10/10 10:19:35;;;;;;;5.22;3.53;;;;;;;21.61;nan;-24417.59;5072569;28;20228;-60
2022/10/10 10:22:01;;;;;;;5.60;3.35;;;;;;;19.30;nan;-24354.28;5072183;28;20219;-61
2022/10/10 10:24:38;;;;;;;5.93;3.70;;;;;;;21.06;nan;-24402.47;5071894;28;20169;-60
2022/10/10 10:27:16;;;;;;;5.60;3.42;;;;;;;21.57;nan;-24416.63;5072170;28;20182;-60
2022/10/10 10:29:48;;;;;;;6.35;3.95;;;;;;;21.67;nan;-24419.25;5072093;28;20187;-60
2022/10/10 10:32:18;;;;;;;5.38;3.42;;;;;;;20.07;nan;-24375.41;5072299;28;20174;-60
2022/10/10 10:34:46;;;;;;;5.93;3.85;;;;;;;21.92;nan;-24426.16;5072334;28;20554;-60
2022/10/10 10:37:20;;;;;;;6.00;3.47;;;;;;;22.02;nan;-24428.81;5071975;28;20177;-60
2022/10/10 10:39:58;;;;;;;3.92;3.05;;;;;;;21.46;nan;-24413.44;5072126;28;20169;-61
2022/10/10 10:42:23;;;;;;;5.72;3.65;;;;;;;21.88;nan;-24424.91;5054063;28;20189;-61
2022/10/10 10:45:30;;;;;;;6.60;3.85;;;;;;;22.31;nan;-24436.84;5071936;28;20201;-61
2022/10/10 10:48:20;;;;;;;6.50;3.67;;;;;;;22.47;nan;-24441.13;5071075;28;20190;-61
2022/10/10 10:50:54;;;;;;;7.72;3.85;;;;;;;22.06;nan;-24429.91;5071493;28;20206;-61
2022/10/10 10:53:45;;;;;;;5.07;3.60;;;;;;;22.77;nan;-24449.41;5054213;28;20246;-63
2022/10/10 10:56:39;;;;;;;6.22;3.65;;;;;;;22.75;nan;-24448.88;5071312;28;20617;-60
2022/10/10 10:59:25;;;;;;;5.53;3.33;;;;;;;22.24;nan;-24434.88;5071528;28;20166;-60
2022/10/10 11:02:14;;;;;;;7.50;4.22;;;;;;;22.10;nan;-24431.03;5071485;28;20590;-60
2022/10/10 11:05:07;;;;;;;6.43;3.72;;;;;;;21.97;nan;-24427.56;5071458;28;20281;-59
2022/10/10 11:07:46;;;;;;;6.10;3.88;;;;;;;21.94;nan;-24426.59;5071692;28;20181;-60
2022/10/10 11:10:16;;;;;;;5.80;3.33;;;;;;;21.62;nan;-24417.84;5071227;28;20266;-60
2022/10/10 11:13:00;;;;;;;5.95;3.50;;;;;;;21.86;nan;-24424.38;5071495;28;20182;-60
2022/10/10 11:15:52;;;;;;;6.30;3.85;;;;;;;22.28;nan;-24436.00;5070847;28;20557;-60
2022/10/10 11:18:26;;;;;;;6.32;3.88;;;;;;;22.10;nan;-24431.03;5070729;28;20178;-60
2022/10/10 11:20:59;;;;;;;5.22;3.70;;;;;;;22.03;nan;-24429.09;5071209;28;20618;-60
2022/10/10 11:23:31;;;;;;;6.20;3.95;;;;;;;22.05;nan;-24429.50;5071183;28;20214;-61
2022/10/10 11:26:05;;;;;;;7.78;3.78;;;;;;;22.02;nan;-24428.81;5069727;28;20213;-59
2022/10/10 11:28:56;;;;;;;7.60;3.90;;;;;;;22.05;nan;-24429.50;5071626;28;20179;-60
2022/10/10 11:31:39;;;;;;;6.90;4.35;;;;;;;22.11;nan;-24431.16;5071506;28;20170;-60
2022/10/10 11:34:15;;;;;;;7.10;4.25;;;;;;;22.00;nan;-24428.38;5071016;28;20162;-61
2022/10/10 11:36:44;;;;;;;8.27;4.38;;;;;;;21.87;nan;-24424.66;5071775;28;20173;-60
2022/10/10 11:39:38;;;;;;;10.02;4.22;;;;;;;21.96;nan;-24427.16;5071343;28;20178;-59
2022/10/10 11:42:15;;;;;;;7.93;4.07;;;;;;;22.03;nan;-24429.09;5071611;28;20176;-60
2022/10/10 11:44:53;;;;;;;7.03;4.00;;;;;;;21.65;nan;-24418.69;5071477;28;20190;-60
2022/10/10 11:47:28;;;;;;;6.63;3.95;;;;;;;21.98;nan;-24427.69;5071834;28;20177;-60
2022/10/10 11:50:00;;;;;;;7.57;4.25;;;;;;;21.85;nan;-24424.09;5071488;28;20162;-60
2022/10/10 11:52:33;;;;;;;6.93;4.32;;;;;;;21.94;nan;-24426.72;5071641;28;20193;-60